createdAt,value
2019-02-22T00:00:41.806Z,6.50
2019-02-22T00:03:12.145Z,6.07
2019-02-22T00:05:42.507Z,5.37
2019-02-22T00:08:12.836Z,5.87
2019-02-22T00:10:43.248Z,7.03
2019-02-22T00:13:13.612Z,8.03
2019-02-22T00:15:43.951Z,6.87
2019-02-22T00:18:14.320Z,4.03
2019-02-22T00:20:44.663Z,6.30
2019-02-22T00:23:15.571Z,5.33
2019-02-22T00:25:45.935Z,6.37
2019-02-22T00:28:16.274Z,6.20
2019-02-22T00:30:46.612Z,6.77
2019-02-22T00:33:17.948Z,7.70
2019-02-22T00:35:48.311Z,7.87
2019-02-22T00:38:18.695Z,6.43
2019-02-22T00:40:49.690Z,8.50
2019-02-22T00:43:20.109Z,6.33
2019-02-22T00:45:50.521Z,7.57
2019-02-22T00:48:20.872Z,5.20
2019-02-22T00:50:50.587Z,5.07
2019-02-22T00:53:20.840Z,9.17
2019-02-22T00:55:50.527Z,8.70
2019-02-22T00:58:20.776Z,10.67
2019-02-22T01:00:50.479Z,8.10
2019-02-22T01:03:21.063Z,7.53
2019-02-22T01:05:50.796Z,5.63
2019-02-22T01:08:21.039Z,6.70
2019-02-22T01:10:50.836Z,9.10
2019-02-22T01:13:21.085Z,9.17
2019-02-22T01:15:50.867Z,9.63
2019-02-22T01:18:21.195Z,7.93
2019-02-22T01:20:54.323Z,9.37
2019-02-22T01:23:22.915Z,8.50
2019-02-22T01:25:53.327Z,10.90
2019-02-22T01:28:23.749Z,11.90
2019-02-22T01:30:54.095Z,10.27
2019-02-22T01:33:24.536Z,9.23
2019-02-22T01:35:54.956Z,8.30
2019-02-22T01:38:25.332Z,6.57
2019-02-22T01:40:55.656Z,6.47
2019-02-22T01:43:26.022Z,7.63
2019-02-22T01:45:56.357Z,7.10
2019-02-22T01:48:26.699Z,7.83
2019-02-22T01:50:57.148Z,9.17
2019-02-22T01:53:27.558Z,8.27
2019-02-22T01:55:57.972Z,8.60
2019-02-22T01:58:28.324Z,8.03
2019-02-22T02:00:58.694Z,8.80
2019-02-22T02:03:29.099Z,7.70
2019-02-22T02:05:59.467Z,8.20
2019-02-22T02:08:29.799Z,8.77
2019-02-22T02:11:00.135Z,7.27
2019-02-22T02:13:30.463Z,8.33
2019-02-22T02:16:00.796Z,11.17
2019-02-22T02:18:31.247Z,11.50
2019-02-22T02:21:02.000Z,10.33
2019-02-22T02:23:32.371Z,11.60
2019-02-22T02:26:02.776Z,12.40
2019-02-22T02:28:33.151Z,11.13
2019-02-22T02:31:03.515Z,12.53
2019-02-22T02:33:33.975Z,12.10
2019-02-22T02:36:04.329Z,12.90
2019-02-22T02:38:34.673Z,13.20
2019-02-22T02:41:10.898Z,13.07
2019-02-22T02:43:37.412Z,15.97
2019-02-22T02:46:08.753Z,14.77
2019-02-22T02:48:40.185Z,11.10
2019-02-22T02:51:10.601Z,8.40
2019-02-22T02:53:40.947Z,8.30
2019-02-22T02:56:11.503Z,8.37
2019-02-22T02:58:41.903Z,7.77
2019-02-22T03:01:12.405Z,10.70
2019-02-22T03:03:42.877Z,8.03
2019-02-22T03:06:34.448Z,7.20
2019-02-22T03:09:07.043Z,6.97
2019-02-22T03:11:38.475Z,8.70
2019-02-22T03:14:08.819Z,10.43
2019-02-22T03:16:39.185Z,9.53
2019-02-22T03:19:09.514Z,7.63
2019-02-22T03:21:39.944Z,7.80
2019-02-22T03:24:10.359Z,10.13
2019-02-22T03:26:40.702Z,10.67
2019-02-22T03:29:11.135Z,11.57
2019-02-22T03:31:42.501Z,10.03
2019-02-22T03:34:12.893Z,8.90
2019-02-22T03:36:43.296Z,11.03
2019-02-22T03:39:12.984Z,13.10
2019-02-22T03:41:43.227Z,9.93
2019-02-22T03:44:13.687Z,11.70
2019-02-22T03:46:44.077Z,10.07
2019-02-22T03:49:13.924Z,11.97
2019-02-22T03:51:44.195Z,10.37
2019-02-22T03:54:13.887Z,11.73
2019-02-22T03:56:44.136Z,8.80
2019-02-22T03:59:13.831Z,9.63
2019-02-22T04:01:44.087Z,11.60
2019-02-22T04:04:13.852Z,10.63
2019-02-22T04:06:44.097Z,11.57
2019-02-22T04:09:13.822Z,14.80
2019-02-22T04:11:46.046Z,11.93
2019-02-22T04:14:16.192Z,13.37
2019-02-22T04:16:46.596Z,11.40
2019-02-22T04:19:16.972Z,14.47
2019-02-22T04:21:47.306Z,12.23
2019-02-22T04:24:17.723Z,10.50
2019-02-22T04:26:48.066Z,11.30
2019-02-22T04:29:18.420Z,13.63
2019-02-22T04:31:48.836Z,10.33
2019-02-22T04:34:19.167Z,11.27
2019-02-22T04:36:49.543Z,14.43
2019-02-22T04:39:19.881Z,11.13
2019-02-22T04:41:58.061Z,9.67
2019-02-22T04:44:22.303Z,8.57
2019-02-22T04:46:52.643Z,8.33
2019-02-22T04:49:22.980Z,10.77
2019-02-22T04:51:53.352Z,10.07
2019-02-22T04:54:23.683Z,9.87
2019-02-22T04:56:53.375Z,11.03
2019-02-22T04:59:23.663Z,7.40
2019-02-22T05:01:53.412Z,10.17
2019-02-22T05:04:23.683Z,8.10
2019-02-22T05:06:53.366Z,7.33
2019-02-22T05:09:23.642Z,9.83
2019-02-22T05:11:53.967Z,9.90
2019-02-22T05:14:24.625Z,8.43
2019-02-22T05:16:54.985Z,9.43
2019-02-22T05:19:25.348Z,9.23
2019-02-22T05:21:55.749Z,9.97
2019-02-22T05:24:26.112Z,10.80
2019-02-22T05:26:56.531Z,13.50
2019-02-22T05:29:26.972Z,9.47
2019-02-22T05:31:57.311Z,9.40
2019-02-22T05:34:27.680Z,7.63
2019-02-22T05:36:58.079Z,9.57
2019-02-22T05:39:28.448Z,7.73
2019-02-22T05:41:58.852Z,8.43
2019-02-22T05:44:29.295Z,11.93
2019-02-22T05:47:00.671Z,14.17
2019-02-22T05:49:31.223Z,5.93
2019-02-22T05:52:01.659Z,8.13
2019-02-22T05:54:32.028Z,6.07
2019-02-22T05:57:02.429Z,7.30
2019-02-22T05:59:32.883Z,9.73
2019-02-22T06:02:03.249Z,9.07
2019-02-22T06:04:33.695Z,8.57
2019-02-22T06:07:04.044Z,7.53
2019-02-22T06:09:34.428Z,7.47
2019-02-22T06:12:04.769Z,7.33
2019-02-22T06:14:35.220Z,5.90
2019-02-22T06:17:14.187Z,6.07
2019-02-22T06:19:37.641Z,8.77
2019-02-22T06:22:07.987Z,9.87
2019-02-22T06:24:38.456Z,8.33
2019-02-22T06:27:08.792Z,6.17
2019-02-22T06:29:39.156Z,4.90
2019-02-22T06:32:09.509Z,5.33
2019-02-22T06:34:39.866Z,6.60
2019-02-22T06:37:10.351Z,8.90
2019-02-22T06:39:40.748Z,7.20
2019-02-22T06:42:11.131Z,5.43
2019-02-22T06:44:41.457Z,6.73
2019-02-22T06:47:11.816Z,6.20
2019-02-22T06:49:44.420Z,4.30
2019-02-22T06:52:14.215Z,6.47
2019-02-22T06:54:44.632Z,6.97
2019-02-22T06:57:15.075Z,6.87
2019-02-22T06:59:45.536Z,4.90
2019-02-22T07:02:15.967Z,6.40
2019-02-22T07:04:46.382Z,7.00
2019-02-22T07:07:16.715Z,5.33
2019-02-22T07:09:47.047Z,5.37
2019-02-22T07:12:21.683Z,4.87
2019-02-22T07:14:52.013Z,4.43
2019-02-22T07:17:22.337Z,6.03
2019-02-22T07:19:52.691Z,5.03
2019-02-22T07:22:23.181Z,5.03
2019-02-22T07:24:53.569Z,6.13
2019-02-22T07:27:23.924Z,9.80
2019-02-22T07:29:54.261Z,9.47
2019-02-22T07:32:24.689Z,6.17
2019-02-22T07:34:56.192Z,5.27
2019-02-22T07:37:26.824Z,4.67
2019-02-22T07:39:57.160Z,5.13
2019-02-22T07:42:27.576Z,4.60
2019-02-22T07:44:57.981Z,6.87
2019-02-22T07:47:29.280Z,9.27
2019-02-22T07:50:00.215Z,4.77
2019-02-22T07:52:31.499Z,5.30
2019-02-22T07:55:01.932Z,7.17
2019-02-22T07:57:32.399Z,5.43
2019-02-22T08:00:02.851Z,4.93
2019-02-22T08:02:34.853Z,5.50
2019-02-22T08:05:05.729Z,4.30
2019-02-22T08:07:36.227Z,4.57
2019-02-22T08:10:06.772Z,4.37
2019-02-22T08:12:37.211Z,5.83
2019-02-22T08:15:08.924Z,5.53
2019-02-22T08:17:39.420Z,4.53
2019-02-22T08:20:09.987Z,3.17
2019-02-22T08:22:41.036Z,5.33
2019-02-22T08:25:12.469Z,5.67
2019-02-22T08:27:53.004Z,8.97
2019-02-22T08:30:15.039Z,7.63
2019-02-22T08:32:45.463Z,5.07
2019-02-22T08:35:15.920Z,6.03
2019-02-22T08:37:46.271Z,5.00
2019-02-22T08:40:16.701Z,6.40
2019-02-22T08:42:47.186Z,5.27
2019-02-22T08:45:19.947Z,7.43
2019-02-22T08:47:50.325Z,5.47
2019-02-22T08:50:20.922Z,6.50
2019-02-22T08:52:51.786Z,6.37
2019-02-22T08:55:22.240Z,5.27
2019-02-22T08:57:52.677Z,7.13
2019-02-22T09:00:23.178Z,5.13
2019-02-22T09:02:53.728Z,4.83
2019-02-22T09:05:24.321Z,5.60
2019-02-22T09:07:54.852Z,4.40
2019-02-22T09:10:25.257Z,7.93
2019-02-22T09:12:55.720Z,4.97
2019-02-22T09:15:26.395Z,4.90
2019-02-22T09:17:56.953Z,6.60
2019-02-22T09:20:27.308Z,4.47
2019-02-22T09:22:57.765Z,4.60
2019-02-22T09:25:28.187Z,3.23
2019-02-22T09:27:58.648Z,4.97
2019-02-22T09:30:29.101Z,6.07
2019-02-22T09:32:59.567Z,4.73
2019-02-22T09:35:29.968Z,4.17
2019-02-22T09:38:00.425Z,8.73
2019-02-22T09:40:30.771Z,3.07
2019-02-22T09:43:01.184Z,5.73
2019-02-22T09:45:31.655Z,3.70
2019-02-22T09:48:02.380Z,6.40
2019-02-22T09:50:32.896Z,5.33
2019-02-22T09:53:03.456Z,3.53
2019-02-22T09:55:33.967Z,6.03
2019-02-22T09:58:04.489Z,4.30
2019-02-22T10:00:34.928Z,4.77
2019-02-22T10:03:05.481Z,4.20
2019-02-22T10:05:35.844Z,3.37
2019-02-22T10:08:06.238Z,3.33
2019-02-22T10:10:36.640Z,4.30
2019-02-22T10:13:07.094Z,3.83
2019-02-22T10:15:37.568Z,4.13
2019-02-22T10:18:08.035Z,5.83
2019-02-22T10:20:38.569Z,6.03
2019-02-22T10:23:08.980Z,3.87
2019-02-22T10:25:39.316Z,5.00
2019-02-22T10:28:17.179Z,6.27
2019-02-22T10:30:41.735Z,3.67
2019-02-22T10:33:12.182Z,3.30
2019-02-22T10:35:42.593Z,3.67
2019-02-22T10:38:12.967Z,5.37
2019-02-22T10:40:43.649Z,4.47
2019-02-22T10:43:14.015Z,4.23
2019-02-22T10:45:44.360Z,5.53
2019-02-22T10:48:14.732Z,6.20
2019-02-22T10:50:45.075Z,6.00
2019-02-22T10:53:15.520Z,3.37
2019-02-22T10:55:45.872Z,4.60
2019-02-22T10:58:16.256Z,5.47
2019-02-22T11:00:46.599Z,3.40
2019-02-22T11:03:17.605Z,5.83
2019-02-22T11:05:48.583Z,4.08
2019-02-22T11:08:18.907Z,3.83
2019-02-22T11:10:49.273Z,3.00
2019-02-22T11:13:21.426Z,4.80
2019-02-22T11:15:52.605Z,3.50
2019-02-22T11:18:23.054Z,2.50
2019-02-22T11:20:53.802Z,7.27
2019-02-22T11:23:24.398Z,5.33
2019-02-22T11:25:54.811Z,4.20
2019-02-22T11:28:25.335Z,4.30
2019-02-22T11:30:55.904Z,3.07
2019-02-22T11:33:26.424Z,5.77
2019-02-22T11:35:56.918Z,2.93
2019-02-22T11:38:28.334Z,4.50
2019-02-22T11:40:58.837Z,5.20
2019-02-22T11:43:29.333Z,3.47
2019-02-22T11:45:59.933Z,5.10
2019-02-22T11:48:30.357Z,5.47
2019-02-22T11:51:01.779Z,6.10
2019-02-22T11:53:34.528Z,4.10
2019-02-22T11:56:05.224Z,3.07
2019-02-22T11:58:35.700Z,3.63
2019-02-22T12:01:08.213Z,3.93
2019-02-22T12:03:38.725Z,5.33
2019-02-22T12:06:09.189Z,3.97
2019-02-22T12:08:39.756Z,5.70
2019-02-22T12:11:10.517Z,3.87
2019-02-22T12:13:41.250Z,4.83
2019-02-22T12:16:12.048Z,4.30
2019-02-22T12:18:42.488Z,5.03
2019-02-22T12:21:15.408Z,5.00
2019-02-22T12:23:45.865Z,3.37
2019-02-22T12:26:16.276Z,3.17
2019-02-22T12:28:46.727Z,2.60
2019-02-22T12:31:18.205Z,4.27
2019-02-22T12:33:49.576Z,4.40
2019-02-22T12:36:20.019Z,4.13
2019-02-22T12:38:50.459Z,4.10
2019-02-22T12:41:20.964Z,5.10
2019-02-22T12:43:51.339Z,4.90
2019-02-22T12:46:21.825Z,3.80
2019-02-22T12:48:52.202Z,4.80
2019-02-22T12:51:23.061Z,3.37
2019-02-22T12:53:54.889Z,2.93
2019-02-22T12:56:56.062Z,3.13
2019-02-22T12:58:59.896Z,4.63
2019-02-22T13:01:30.666Z,6.50
2019-02-22T13:04:01.171Z,3.27
2019-02-22T13:06:32.889Z,3.20
2019-02-22T13:09:04.861Z,4.20
2019-02-22T13:11:36.944Z,3.97
2019-02-22T13:14:07.340Z,4.47
2019-02-22T13:16:39.108Z,3.40
2019-02-22T13:19:09.460Z,4.83
2019-02-22T13:21:39.846Z,3.93
2019-02-22T13:24:10.671Z,4.73
2019-02-22T13:26:41.172Z,3.63
2019-02-22T13:29:13.916Z,4.33
2019-02-22T13:31:44.357Z,4.93
2019-02-22T13:34:14.826Z,2.90
2019-02-22T13:36:45.340Z,3.03
2019-02-22T13:39:16.203Z,4.47
2019-02-22T13:41:46.599Z,5.53
2019-02-22T13:44:17.063Z,6.23
2019-02-22T13:46:48.141Z,4.43
2019-02-22T13:49:19.048Z,4.30
2019-02-22T13:51:50.041Z,4.20
2019-02-22T13:54:21.862Z,3.63
2019-02-22T13:56:53.738Z,5.27
2019-02-22T13:59:24.235Z,7.73
2019-02-22T14:01:55.348Z,4.53
2019-02-22T14:04:26.024Z,3.10
2019-02-22T14:06:56.491Z,4.40
2019-02-22T14:09:26.844Z,5.73
2019-02-22T14:11:57.624Z,7.60
2019-02-22T14:14:28.121Z,4.77
2019-02-22T14:16:59.382Z,2.37
2019-02-22T14:19:29.884Z,4.50
2019-02-22T14:22:00.283Z,4.73
2019-02-22T14:24:30.795Z,5.73
2019-02-22T14:27:01.264Z,6.77
2019-02-22T14:29:32.073Z,3.70
2019-02-22T14:32:02.507Z,5.53
2019-02-22T14:34:33.054Z,6.53
2019-02-22T14:37:06.551Z,5.30
2019-02-22T14:39:38.853Z,4.33
2019-02-22T14:42:09.004Z,5.77
2019-02-22T14:44:39.453Z,5.67
2019-02-22T14:47:12.699Z,7.63
2019-02-22T14:49:43.188Z,3.80
2019-02-22T14:52:13.617Z,7.47
2019-02-22T14:54:44.068Z,6.57
2019-02-22T14:57:16.525Z,10.23
2019-02-22T14:59:47.082Z,3.73
2019-02-22T15:02:17.528Z,5.40
2019-02-22T15:04:47.941Z,4.67
2019-02-22T15:07:18.308Z,3.60
2019-02-22T15:09:49.080Z,5.90
2019-02-22T15:12:19.624Z,4.30
2019-02-22T15:14:50.308Z,5.43
2019-02-22T15:17:31.336Z,5.30
2019-02-22T15:20:02.127Z,3.27
2019-02-22T15:22:32.640Z,6.43
2019-02-22T15:25:03.114Z,4.80
2019-02-22T15:27:36.169Z,3.23
2019-02-22T15:30:07.234Z,6.43
2019-02-22T15:32:41.520Z,4.73
2019-02-22T15:35:14.002Z,4.87
2019-02-22T15:37:44.551Z,6.77
2019-02-22T15:40:14.981Z,4.90
2019-02-22T15:42:45.471Z,6.73
2019-02-22T15:45:16.016Z,7.17
2019-02-22T15:47:48.609Z,13.23
2019-02-22T15:50:20.992Z,7.43
2019-02-22T15:52:51.471Z,6.20
2019-02-22T15:55:23.653Z,12.20
2019-02-22T15:57:56.517Z,11.00
2019-02-22T16:00:28.171Z,11.30
2019-02-22T16:02:58.668Z,9.30
2019-02-22T16:05:37.644Z,7.63
2019-02-22T16:08:08.182Z,10.80
2019-02-22T16:10:39.924Z,7.93
2019-02-22T16:13:10.353Z,7.67
2019-02-22T16:15:40.855Z,7.70
2019-02-22T16:18:11.341Z,7.80
2019-02-22T16:20:41.736Z,5.87
2019-02-22T16:23:12.516Z,4.80
2019-02-22T16:25:43.247Z,4.93
2019-02-22T16:28:15.714Z,4.27
2019-02-22T16:30:46.048Z,7.47
2019-02-22T16:33:16.500Z,3.77
2019-02-22T16:35:47.069Z,8.33
2019-02-22T16:38:17.493Z,4.37
2019-02-22T16:40:47.898Z,7.27
2019-02-22T16:43:18.276Z,7.10
2019-02-22T16:45:49.236Z,8.03
2019-02-22T16:48:19.977Z,7.67
2019-02-22T16:50:50.422Z,9.67
2019-02-22T16:53:20.883Z,6.47
2019-02-22T16:55:51.256Z,5.27
2019-02-22T16:58:21.739Z,5.30
2019-02-22T17:00:52.107Z,4.77
2019-02-22T17:03:22.606Z,5.97
2019-02-22T17:05:52.964Z,4.40
2019-02-22T17:08:25.074Z,6.93
2019-02-22T17:10:55.579Z,3.30
2019-02-22T17:13:26.987Z,5.63
2019-02-22T17:15:57.359Z,3.93
2019-02-22T17:18:27.772Z,5.40
2019-02-22T17:20:59.076Z,4.07
2019-02-22T17:23:29.795Z,6.47
2019-02-22T17:26:00.250Z,4.77
2019-02-22T17:28:30.872Z,5.73
2019-02-22T17:31:01.282Z,5.20
2019-02-22T17:33:31.683Z,7.20
2019-02-22T17:36:05.075Z,10.10
2019-02-22T17:38:35.995Z,14.17
2019-02-22T17:41:06.435Z,8.90
2019-02-22T17:43:36.832Z,6.47
2019-02-22T17:46:07.340Z,8.93
2019-02-22T17:48:37.821Z,7.93
2019-02-22T17:51:08.185Z,6.30
2019-02-22T17:53:38.625Z,7.93
2019-02-22T17:56:09.109Z,7.33
2019-02-22T17:58:39.580Z,8.33
2019-02-22T18:01:10.721Z,7.17
2019-02-22T18:03:41.260Z,9.87
2019-02-22T18:06:11.714Z,6.40
2019-02-22T18:08:42.132Z,10.10
2019-02-22T18:11:12.546Z,6.63
2019-02-22T18:13:42.879Z,6.43
2019-02-22T18:16:13.619Z,8.37
2019-02-22T18:18:43.948Z,11.33
2019-02-22T18:21:14.320Z,15.37
2019-02-22T18:23:44.919Z,13.40
2019-02-22T18:26:15.291Z,16.37
2019-02-22T18:28:45.639Z,20.83
2019-02-22T18:31:16.084Z,14.67
2019-02-22T18:33:46.421Z,12.13
2019-02-22T18:36:16.895Z,10.97
2019-02-22T18:38:47.229Z,9.53
2019-02-22T18:41:17.600Z,7.27
2019-02-22T18:43:48.074Z,9.17
2019-02-22T18:46:18.550Z,10.07
2019-02-22T18:48:48.965Z,5.97
2019-02-22T18:51:19.420Z,10.00
2019-02-22T18:53:49.763Z,9.90
2019-02-22T18:56:20.146Z,11.87
2019-02-22T18:58:50.559Z,13.53
2019-02-22T19:01:22.276Z,12.83
2019-02-22T19:03:53.700Z,17.07
2019-02-22T19:06:24.132Z,13.33
2019-02-22T19:08:54.631Z,10.77
2019-02-22T19:11:26.437Z,10.70
2019-02-22T19:13:56.956Z,11.07
2019-02-22T19:16:27.369Z,9.57
2019-02-22T19:18:57.880Z,8.07
2019-02-22T19:21:28.323Z,9.30
2019-02-22T19:23:59.051Z,11.07
2019-02-22T19:26:29.540Z,9.60
2019-02-22T19:29:00.000Z,9.20
2019-02-22T19:31:32.259Z,9.17
2019-02-22T19:34:04.640Z,6.40
2019-02-22T19:36:35.092Z,10.47
2019-02-22T19:39:05.875Z,17.73
2019-02-22T19:41:37.880Z,99.97
2019-02-22T19:44:09.463Z,131.23
2019-02-22T19:46:40.721Z,85.27
2019-02-22T19:49:11.160Z,103.13
2019-02-22T19:51:41.499Z,124.83
2019-02-22T19:54:32.129Z,57.50
2019-02-22T19:57:02.633Z,30.50
2019-02-22T19:59:35.908Z,66.57
2019-02-22T20:02:07.128Z,34.20
2019-02-22T20:04:38.076Z,43.90
2019-02-22T20:07:09.742Z,33.27
2019-02-22T20:09:40.228Z,22.17
2019-02-22T20:12:10.687Z,27.47
2019-02-22T20:14:41.178Z,27.57
2019-02-22T20:17:11.873Z,22.43
2019-02-22T20:19:42.693Z,22.47
2019-02-22T20:22:14.019Z,20.07
2019-02-22T20:24:47.082Z,23.23
2019-02-22T20:27:17.566Z,29.90
2019-02-22T20:29:48.488Z,24.93
2019-02-22T20:32:19.094Z,22.23
2019-02-22T20:34:49.600Z,23.43
2019-02-22T20:37:20.166Z,26.80
2019-02-22T20:39:53.581Z,19.37
2019-02-22T20:42:24.009Z,21.03
2019-02-22T20:44:54.528Z,15.47
2019-02-22T20:47:25.030Z,12.00
2019-02-22T20:49:56.799Z,13.47
2019-02-22T20:52:27.284Z,16.13
2019-02-22T20:54:57.992Z,15.57
2019-02-22T20:57:28.695Z,14.60
2019-02-22T20:59:59.376Z,12.97
2019-02-22T21:02:29.816Z,15.90
2019-02-22T21:05:03.021Z,14.90
2019-02-22T21:07:33.472Z,20.30
2019-02-22T21:10:04.864Z,10.20
2019-02-22T21:12:36.135Z,14.50
2019-02-22T21:15:06.084Z,15.57
2019-02-22T21:17:36.512Z,14.40
2019-02-22T21:20:06.736Z,12.37
2019-02-22T21:22:38.536Z,10.30
2019-02-22T21:25:09.968Z,7.40
2019-02-22T21:27:40.490Z,11.43
2019-02-22T21:30:12.679Z,9.87
2019-02-22T21:32:45.324Z,10.57
2019-02-22T21:35:16.357Z,12.77
2019-02-22T21:37:48.721Z,14.50
2019-02-22T21:40:19.127Z,8.03
2019-02-22T21:42:49.540Z,12.93
2019-02-22T21:45:19.884Z,12.67
2019-02-22T21:47:54.594Z,14.80
2019-02-22T21:50:22.284Z,13.63
2019-02-22T21:52:53.592Z,12.23
2019-02-22T21:55:23.975Z,12.03
2019-02-22T21:57:54.398Z,15.47
2019-02-22T22:00:24.963Z,12.13
2019-02-22T22:02:55.383Z,18.73
2019-02-22T22:05:25.771Z,14.63
2019-02-22T22:07:56.119Z,16.97
2019-02-22T22:10:26.495Z,9.63
2019-02-22T22:12:56.852Z,13.00
2019-02-22T22:15:27.235Z,13.13
2019-02-22T22:17:57.576Z,13.47
2019-02-22T22:20:27.921Z,15.10
2019-02-22T22:22:58.271Z,16.50
2019-02-22T22:25:28.688Z,13.67
2019-02-22T22:27:59.104Z,17.73
2019-02-22T22:30:29.451Z,16.70
2019-02-22T22:32:59.832Z,14.10
2019-02-22T22:35:30.184Z,16.27
2019-02-22T22:38:00.637Z,15.83
2019-02-22T22:40:31.012Z,22.10
2019-02-22T22:43:01.367Z,16.73
2019-02-22T22:45:31.852Z,17.43
2019-02-22T22:48:02.357Z,16.30
2019-02-22T22:50:32.866Z,17.47
2019-02-22T22:53:03.233Z,15.90
2019-02-22T22:55:33.648Z,17.00
2019-02-22T22:58:04.015Z,15.93
2019-02-22T23:00:58.435Z,15.50
2019-02-22T23:03:30.127Z,15.00
2019-02-22T23:06:00.655Z,17.87
2019-02-22T23:08:31.069Z,17.77
2019-02-22T23:11:01.439Z,20.53
2019-02-22T23:13:31.848Z,14.93
2019-02-22T23:16:02.391Z,15.43
2019-02-22T23:18:32.791Z,15.57
2019-02-22T23:21:03.132Z,14.97
2019-02-22T23:23:33.570Z,11.90
2019-02-22T23:26:03.999Z,11.77
2019-02-22T23:28:34.431Z,16.00
2019-02-22T23:31:05.835Z,13.63
2019-02-22T23:33:36.212Z,17.53
2019-02-22T23:36:06.747Z,21.63
2019-02-22T23:38:37.187Z,16.93
2019-02-22T23:41:07.527Z,16.73
2019-02-22T23:43:37.920Z,17.77
2019-02-22T23:46:08.275Z,15.17
2019-02-22T23:48:38.760Z,18.80
2019-02-22T23:51:08.491Z,17.07
2019-02-22T23:53:38.735Z,22.67
2019-02-22T23:56:08.429Z,17.70
2019-02-22T23:58:38.711Z,19.00
